Time;durP1;ratioP1;P1;durP2;ratioP2;P2;SDS_P1;SDS_P2;PMS_P1;PMS_P2;Temp;Humidity;BMP_temperature;BMP_pressure;BME280_temperature;BME280_humidity;BME280_pressure;Samples;Min_cycle;Max_cycle;Signal;HPM_P1;HPM_P2
2022/08/20 00:00:35;;;;;;;;;3.00;3.00;;;;;23.10;48.65;101295.28;2096618;28;47595;-53
2022/08/20 00:01:35;;;;;;;;;1.00;1.00;;;;;23.11;48.40;101288.88;2104286;27;46720;-56
2022/08/20 00:02:47;;;;;;;;;2.00;2.00;;;;;23.12;48.63;101285.25;2105698;27;47815;-53
2022/08/20 00:03:47;;;;;;;;;2.25;1.75;;;;;23.12;48.77;101287.94;2105368;27;47909;-52
2022/08/20 00:04:48;;;;;;;;;4.50;3.25;;;;;23.13;48.60;101288.81;2104560;27;47400;-52
2022/08/20 00:05:53;;;;;;;;;1.67;1.67;;;;;23.12;48.50;101281.63;2105367;27;47415;-53
2022/08/20 00:06:53;;;;;;;;;2.75;2.75;;;;;23.11;48.61;101279.91;2104593;28;48042;-54
2022/08/20 00:07:54;;;;;;;;;2.00;2.00;;;;;23.11;48.18;101288.03;2105596;27;47273;-49
2022/08/20 00:08:54;;;;;;;;;3.00;1.00;;;;;23.10;48.44;101286.28;2105523;27;47713;-54
2022/08/20 00:09:55;;;;;;;;;2.00;2.00;;;;;23.07;48.63;101284.66;2104376;28;47252;-53
2022/08/20 00:10:56;;;;;;;;;2.67;2.00;;;;;;;;2096879;28;47297;-51
2022/08/20 00:11:56;;;;;;;;;2.50;2.50;;;;;23.06;48.55;101279.34;2096515;28;47499;-53
2022/08/20 00:12:57;;;;;;;;;5.25;4.25;;;;;23.03;48.60;101283.13;2104862;28;48070;-55
2022/08/20 00:14:01;;;;;;;;;3.00;2.00;;;;;23.03;48.64;101284.97;2105457;27;47872;-51
2022/08/20 00:15:04;;;;;;;;;1.75;1.75;;;;;23.01;48.72;101279.66;2096403;28;47456;-52
2022/08/20 00:16:06;;;;;;;;;2.00;1.50;;;;;23.01;48.55;101278.78;2104320;27;47175;-52
2022/08/20 00:17:07;;;;;;;;;3.50;3.50;;;;;23.00;48.85;101283.34;2108271;27;47064;-54
2022/08/20 00:18:09;;;;;;;;;3.00;2.67;;;;;22.99;49.17;101278.84;2104457;27;47183;-53
2022/08/20 00:19:10;;;;;;;;;1.75;1.75;;;;;22.99;49.31;101272.56;2112583;27;47554;-54
2022/08/20 00:20:12;;;;;;;;;2.50;2.50;;;;;22.99;49.05;101278.84;2110848;27;47582;-50
2022/08/20 00:21:16;;;;;;;;;4.00;4.00;;;;;23.00;49.14;101277.91;2104841;28;47881;-53
2022/08/20 00:22:17;;;;;;;;;1.50;1.50;;;;;22.98;49.17;101277.13;2105712;27;47194;-50
2022/08/20 00:23:19;;;;;;;;;2.00;2.00;;;;;22.98;49.21;101279.81;2105429;27;47833;-51
2022/08/20 00:24:19;;;;;;;;;1.75;1.75;;;;;22.98;49.30;101279.81;2104162;28;47606;-53
2022/08/20 00:25:19;;;;;;;;;2.00;1.00;;;;;22.99;49.35;101286.97;2105491;27;47383;-53
2022/08/20 00:26:21;;;;;;;;;1.33;1.00;;;;;22.99;49.38;101284.28;2104518;27;47761;-52
2022/08/20 00:27:21;;;;;;;;;2.40;2.40;;;;;22.98;49.06;101284.38;2104686;27;47814;-50
2022/08/20 00:28:22;;;;;;;;;1.00;1.00;;;;;22.98;49.44;101281.66;2105046;27;48065;-53
2022/08/20 00:29:22;;;;;;;;;3.00;3.00;;;;;22.96;49.65;101281.78;2095387;28;47534;-51
2022/08/20 00:30:25;;;;;;;;;2.00;1.00;;;;;22.96;49.60;101284.47;2096311;28;47935;-52
2022/08/20 00:31:26;;;;;;;;;2.75;2.75;;;;;22.98;49.84;101281.66;2100808;27;47184;-53
2022/08/20 00:32:26;;;;;;;;;2.00;2.00;;;;;22.98;49.93;101287.09;2104288;28;47833;-53
2022/08/20 00:33:27;;;;;;;;;1.33;1.33;;;;;22.99;49.46;101280.69;2105194;27;47915;-53
2022/08/20 00:34:27;;;;;;;;;4.33;2.00;;;;;23.00;49.36;101287.88;2104953;27;47357;-53
2022/08/20 00:35:31;;;;;;;;;2.33;2.33;;;;;22.99;49.88;101288.81;2104558;27;47787;-51
2022/08/20 00:36:32;;;;;;;;;2.00;2.00;;;;;22.98;49.67;101287.94;2105033;27;47824;-53
2022/08/20 00:37:32;;;;;;;;;2.33;0.67;;;;;23.00;49.80;101287.88;2104365;28;47210;-52
2022/08/20 00:38:35;;;;;;;;;2.00;2.00;;;;;23.00;49.69;101282.47;2105030;27;47342;-55
2022/08/20 00:39:36;;;;;;;;;4.00;3.25;;;;;23.00;49.58;101288.75;2105484;27;47906;-54
2022/08/20 00:40:41;;;;;;;;;3.33;2.00;;;;;22.99;49.66;101286.97;2109017;27;47800;-55
2022/08/20 00:41:41;;;;;;;;;3.00;3.00;;;;;22.99;49.62;101289.69;2106865;27;48343;-52
2022/08/20 00:42:45;;;;;;;;;2.67;2.67;;;;;22.99;49.67;101286.97;2106469;27;47432;-53
2022/08/20 00:44:07;;;;;;;;;1.25;1.25;;;;;22.98;50.15;101287.94;2105799;28;47535;-53
2022/08/20 00:45:09;;;;;;;;;0.50;0.50;;;;;22.99;49.62;101286.97;2106194;27;47526;-53
2022/08/20 00:46:23;;;;;;;;;3.00;2.50;;;;;22.98;49.58;101290.66;2106726;27;47820;-51
2022/08/20 00:47:26;;;;;;;;;1.00;1.00;;;;;22.97;49.61;101285.34;2106226;27;47897;-55
2022/08/20 00:48:30;;;;;;;;;1.00;1.00;;;;;22.95;49.62;101282.75;2105999;28;48359;-51
2022/08/20 00:49:31;;;;;;;;;2.25;1.75;;;;;22.94;49.72;101285.56;2097371;28;47611;-53
2022/08/20 00:50:36;;;;;;;;;3.00;3.00;;;;;22.90;49.74;101280.34;2080406;28;47696;-52
2022/08/20 00:51:41;;;;;;;;;5.00;3.75;;;;;22.90;49.86;101283.06;2089707;28;47360;-52
2022/08/20 00:52:45;;;;;;;;;3.50;3.50;;;;;22.89;49.80;101280.44;2111147;27;46300;-52
2022/08/20 00:53:46;;;;;;;;;3.50;2.75;;;;;22.89;49.78;101280.44;2110910;27;47690;-53
2022/08/20 00:54:58;;;;;;;;;1.75;1.75;;;;;22.89;49.79;101288.56;2105326;28;47921;-53
2022/08/20 00:55:59;;;;;;;;;3.50;3.25;;;;;22.87;49.80;101280.53;2106552;27;47059;-52
2022/08/20 00:57:07;;;;;;;;;2.00;2.00;;;;;22.85;49.96;101278.88;2096690;28;47214;-51
2022/08/20 00:58:08;;;;;;;;;2.75;1.00;;;;;22.84;49.75;101280.72;2098431;28;47888;-51
2022/08/20 00:59:13;;;;;;;;;2.25;2.25;;;;;22.82;50.15;101279.91;2108164;27;47419;-50
2022/08/20 01:00:19;;;;;;;;;2.50;1.50;;;;;22.81;50.13;101280.88;2113759;27;47658;-52
2022/08/20 01:01:21;;;;;;;;;2.75;2.25;;;;;22.80;50.04;101276.44;2107555;27;48311;-54
2022/08/20 01:02:26;;;;;;;;;3.00;3.00;;;;;22.79;49.93;101277.41;2107792;27;48313;-51
2022/08/20 01:03:26;;;;;;;;;4.00;4.00;;;;;22.79;50.21;101276.53;2114199;27;48025;-50
2022/08/20 01:04:33;;;;;;;;;2.00;2.00;;;;;22.77;50.18;101279.34;2099370;28;47247;-53
2022/08/20 01:05:38;;;;;;;;;3.50;2.00;;;;;22.75;50.34;101289.41;2098421;28;47552;-53
2022/08/20 01:06:40;;;;;;;;;3.25;2.25;;;;;22.74;50.00;101284.97;2105480;28;47698;-51
2022/08/20 01:07:43;;;;;;;;;2.00;2.00;;;;;22.74;49.97;101281.38;2106764;27;47783;-52
2022/08/20 01:08:44;;;;;;;;;1.00;1.00;;;;;22.74;50.38;101284.06;2097557;28;47485;-52
2022/08/20 01:09:46;;;;;;;;;1.33;1.00;;;;;22.74;50.29;101278.66;2096658;28;47379;-54
2022/08/20 01:10:48;;;;;;;;;1.75;1.75;;;;;22.74;50.22;101282.25;2106442;27;47690;-52
2022/08/20 01:11:49;;;;;;;;;3.50;2.00;;;;;22.74;50.20;101290.38;2105276;27;47538;-54
2022/08/20 01:12:52;;;;;;;;;1.67;1.67;;;;;22.73;49.85;101285.03;2097445;28;47977;-54
2022/08/20 01:13:53;;;;;;;;;3.00;2.25;;;;;22.73;50.42;101285.03;2097659;28;46396;-53
2022/08/20 01:14:57;;;;;;;;;1.75;1.75;;;;;22.71;50.06;101279.72;2105475;28;47135;-54
2022/08/20 01:16:00;;;;;;;;;3.00;3.00;;;;;22.70;50.02;101282.53;2113640;27;46587;-53
2022/08/20 01:17:07;;;;;;;;;2.00;2.00;;;;;22.69;50.39;101283.50;2110743;27;47591;-54
2022/08/20 01:18:12;;;;;;;;;4.00;2.25;;;;;22.67;50.25;101278.19;2105561;27;47501;-52
2022/08/20 01:19:15;;;;;;;;;5.00;3.00;;;;;22.65;50.19;101277.44;2113675;27;47672;-53
2022/08/20 01:20:23;;;;;;;;;4.25;3.00;;;;;22.67;50.03;101280.03;2111052;27;47338;-50
2022/08/20 01:21:27;;;;;;;;;3.00;3.00;;;;;22.67;50.46;101271.91;2096489;28;47675;-52
2022/08/20 01:24:26;;;;;;;;;1.00;0.75;;;;;22.66;50.33;101267.47;2112604;27;47267;-54
2022/08/20 01:25:52;;;;;;;;;4.00;3.00;;;;;22.65;50.42;101268.44;2108764;27;47242;-54
2022/08/20 01:26:53;;;;;;;;;3.25;3.25;;;;;22.63;50.65;101268.53;2105689;27;47816;-53
2022/08/20 01:27:55;;;;;;;;;5.00;3.00;;;;;22.64;50.53;101272.13;2105803;28;48101;-48
2022/08/20 01:29:24;;;;;;;;;2.75;2.50;;;;;22.61;50.29;101268.66;2105907;27;47446;-53
2022/08/20 01:30:27;;;;;;;;;3.75;3.75;;;;;22.60;50.58;101269.59;2063648;28;47876;-52
2022/08/20 01:31:31;;;;;;;;;5.00;4.00;;;;;22.60;50.80;101274.13;2059325;28;47814;-51
2022/08/20 01:32:31;;;;;;;;;3.75;3.75;;;;;22.59;50.92;101270.56;2062824;28;47968;-52
2022/08/20 01:33:32;;;;;;;;;3.33;2.67;;;;;22.59;50.46;101266.97;2063864;28;47499;-53
2022/08/20 01:34:32;;;;;;;;;4.67;3.00;;;;;22.59;50.49;101272.38;2064322;28;47030;-51
2022/08/20 01:35:38;;;;;;;;;2.00;2.00;;;;;22.58;50.71;101273.34;2055132;28;46949;-52
2022/08/20 01:36:43;;;;;;;;;23.20;21.00;;;;;22.57;50.73;101279.72;2055684;28;47633;-52
2022/08/20 01:37:43;;;;;;;;;5.60;4.60;;;;;22.55;50.55;101281.66;2063950;28;47993;-53
2022/08/20 01:38:45;;;;;;;;;4.33;4.00;;;;;22.54;50.50;101275.38;2063401;28;47890;-51
2022/08/20 01:39:46;;;;;;;;;4.00;3.00;;;;;22.52;50.79;101277.34;2063817;28;47541;-52
2022/08/20 01:41:00;;;;;;;;;4.67;3.67;;;;;22.52;51.08;101281.88;2054725;28;45927;-51
2022/08/20 01:42:16;;;;;;;;;3.75;3.75;;;;;22.51;50.84;101280.13;2056351;28;47975;-50
2022/08/20 01:43:17;;;;;;;;;3.00;2.00;;;;;22.51;51.16;101285.53;2062449;28;47243;-52
2022/08/20 01:44:20;;;;;;;;;3.00;1.00;;;;;22.52;50.95;101290.84;2063977;28;47705;-55
2022/08/20 01:45:20;;;;;;;;;3.25;3.25;;;;;22.52;50.86;101284.56;2062781;28;47384;-54
2022/08/20 01:46:22;;;;;;;;;6.00;5.00;;;;;22.51;50.93;101289.13;2063020;28;46585;-50
2022/08/20 01:47:27;;;;;;;;;6.00;5.00;;;;;22.52;50.95;101292.69;2063005;28;47698;-53
2022/08/20 01:48:28;;;;;;;;;2.60;2.60;;;;;22.52;50.98;101289.97;2062843;28;47599;-51
2022/08/20 01:49:33;;;;;;;;;2.00;2.00;;;;;22.51;51.07;101286.41;2062983;28;47537;-52
2022/08/20 01:50:37;;;;;;;;;3.75;3.75;;;;;22.52;51.46;101287.28;2054805;28;47790;-49
2022/08/20 01:51:38;;;;;;;;;2.00;2.00;;;;;22.51;50.81;101289.13;2054181;28;47451;-54
2022/08/20 01:53:05;;;;;;;;;2.25;2.00;;;;;22.51;50.83;101294.53;2063122;28;47533;-51
2022/08/20 01:54:06;;;;;;;;;4.00;2.00;;;;;22.48;50.81;101294.69;2064616;28;47405;-53
2022/08/20 01:55:07;;;;;;;;;1.75;1.00;;;;;22.49;51.12;101296.47;2062521;28;47616;-53
2022/08/20 01:56:15;;;;;;;;;5.25;2.75;;;;;22.48;51.17;101293.81;2063846;28;47985;-54
2022/08/20 01:57:18;;;;;;;;;2.00;2.00;;;;;22.46;51.34;101299.34;2063486;28;47607;-53
2022/08/20 01:58:19;;;;;;;;;2.00;2.00;;;;;22.46;51.24;101299.34;2063073;28;47740;-49
2022/08/20 01:59:20;;;;;;;;;4.75;3.25;;;;;22.44;51.11;101306.69;2062759;28;47281;-52
2022/08/20 02:00:21;;;;;;;;;3.67;3.67;;;;;22.42;51.52;101288.81;2062515;28;47456;-53
2022/08/20 02:01:35;;;;;;;;;6.75;5.00;;;;;22.41;51.71;101293.34;2054480;28;47693;-50
2022/08/20 02:02:36;;;;;;;;;1.50;1.50;;;;;22.41;51.15;101298.75;2056272;28;47749;-51
2022/08/20 02:03:36;;;;;;;;;4.33;3.33;;;;;22.41;50.93;101289.78;2063065;28;47998;-53
2022/08/20 02:04:37;;;;;;;;;4.00;4.00;;;;;22.40;51.09;101294.31;2063523;28;47243;-51
2022/08/20 02:05:37;;;;;;;;;3.00;3.00;;;;;22.40;51.60;101301.56;2062671;28;47495;-51
2022/08/20 02:06:42;;;;;;;;;2.00;2.00;;;;;22.39;51.38;101294.41;2062887;28;47717;-51
2022/08/20 02:07:42;;;;;;;;;4.00;2.00;;;;;22.38;51.31;101295.38;2067456;28;47399;-51
2022/08/20 02:08:43;;;;;;;;;2.67;2.67;;;;;22.36;51.27;101300.91;2096868;28;47875;-53
2022/08/20 02:09:43;;;;;;;;;2.00;2.00;;;;;22.35;51.25;101299.13;2105350;28;47298;-52
2022/08/20 02:10:45;;;;;;;;;3.67;2.67;;;;;22.33;51.42;101304.63;2096793;28;46099;-54
2022/08/20 02:11:46;;;;;;;;;2.75;1.75;;;;;22.32;51.08;101302.03;2096516;27;47898;-53
2022/08/20 02:12:46;;;;;;;;;2.00;1.50;;;;;22.33;51.45;101306.47;2103608;28;47466;-54
2022/08/20 02:13:51;;;;;;;;;4.00;3.67;;;;;22.31;51.23;101303.84;2100375;28;47107;-49
2022/08/20 02:14:53;;;;;;;;;4.00;3.00;;;;;22.31;51.58;101297.59;2105095;28;48174;-52
2022/08/20 02:15:54;;;;;;;;;3.00;2.50;;;;;22.30;51.68;101304.81;2111334;27;48075;-53
2022/08/20 02:16:57;;;;;;;;;4.67;4.67;;;;;22.31;51.24;101305.69;2110348;27;46910;-53
2022/08/20 02:17:57;;;;;;;;;4.25;4.25;;;;;22.30;51.68;101304.81;2105089;28;46667;-52
2022/08/20 02:19:03;;;;;;;;;4.00;3.67;;;;;22.28;51.77;101300.47;2087431;28;48231;-52
2022/08/20 02:20:07;;;;;;;;;6.00;3.75;;;;;22.29;51.90;101310.34;2089684;28;47527;-52
2022/08/20 02:21:07;;;;;;;;;5.25;3.75;;;;;22.27;51.66;101307.72;2104866;28;47480;-52
2022/08/20 02:22:33;;;;;;;;;4.67;4.33;;;;;22.27;51.91;101312.25;2111058;27;47911;-53
2022/08/20 02:23:34;;;;;;;;;1.75;0.00;;;;;22.25;51.82;101315.06;2109942;27;47925;-50
2022/08/20 02:24:34;;;;;;;;;4.67;4.67;;;;;22.23;51.80;101317.00;2096056;28;47159;-52
2022/08/20 02:25:38;;;;;;;;;3.00;3.00;;;;;22.23;51.62;101310.69;2096526;28;48015;-51
2022/08/20 02:26:39;;;;;;;;;1.50;1.50;;;;;22.22;51.49;101315.22;2105646;27;47330;-52
2022/08/20 02:27:42;;;;;;;;;2.50;2.50;;;;;22.23;51.89;101310.69;2104744;28;48632;-52
2022/08/20 02:28:43;;;;;;;;;3.50;2.00;;;;;22.22;51.54;101314.34;2106021;27;47512;-51
2022/08/20 02:29:45;;;;;;;;;1.50;1.25;;;;;22.22;51.50;101311.66;2105749;27;47835;-53
2022/08/20 02:30:50;;;;;;;;;5.25;4.00;;;;;22.22;52.12;101308.94;2103012;28;47867;-52
2022/08/20 02:31:50;;;;;;;;;2.00;2.00;;;;;22.21;51.80;101312.63;2103528;27;47843;-53
2022/08/20 02:32:51;;;;;;;;;1.00;0.67;;;;;22.21;51.60;101307.22;2105729;27;48058;-55
2022/08/20 02:33:51;;;;;;;;;1.00;1.00;;;;;22.20;51.98;101309.03;2095902;28;47719;-54
2022/08/20 02:34:51;;;;;;;;;3.00;3.00;;;;;22.19;51.59;101309.16;2096837;28;47481;-52
2022/08/20 02:35:55;;;;;;;;;5.00;2.00;;;;;22.16;51.97;101303.94;2104567;28;47578;-52
2022/08/20 02:36:55;;;;;;;;;4.75;4.00;;;;;22.16;51.51;101309.34;2106151;27;47836;-53
2022/08/20 02:37:56;;;;;;;;;2.67;2.00;;;;;22.16;51.96;101310.22;2095455;28;47785;-53
2022/08/20 02:38:57;;;;;;;;;2.00;2.00;;;;;22.15;51.53;101308.47;2095445;28;47424;-53
2022/08/20 02:39:57;;;;;;;;;3.67;1.33;;;;;22.14;51.96;101317.53;2105644;27;47537;-54
2022/08/20 02:40:57;;;;;;;;;1.67;1.67;;;;;22.12;51.79;101314.06;2096845;28;47154;-52
2022/08/20 02:41:58;;;;;;;;;4.67;2.67;;;;;22.11;51.76;101306.94;2095472;28;47872;-53
2022/08/20 02:43:01;;;;;;;;;2.67;2.33;;;;;22.10;52.16;101315.09;2105812;27;47947;-52
2022/08/20 02:44:03;;;;;;;;;4.00;3.50;;;;;22.08;51.91;101311.63;2105063;27;47546;-53
2022/08/20 02:45:05;;;;;;;;;3.25;3.25;;;;;22.07;52.12;101315.28;2104983;27;47350;-54
2022/08/20 02:46:06;;;;;;;;;2.00;2.00;;;;;22.06;52.19;101314.41;2108328;27;47780;-50
2022/08/20 02:47:06;;;;;;;;;1.75;1.75;;;;;22.07;52.40;101307.19;2113615;27;47508;-52
2022/08/20 02:48:07;;;;;;;;;3.00;2.00;;;;;22.06;52.14;101308.16;2106592;27;47848;-51
2022/08/20 02:49:07;;;;;;;;;1.67;1.67;;;;;22.06;52.04;101314.41;2105934;27;47466;-53
2022/08/20 02:50:11;;;;;;;;;2.00;2.00;;;;;22.07;51.97;101315.28;2104796;28;48074;-53
2022/08/20 02:51:11;;;;;;;;;3.00;2.00;;;;;22.07;51.91;101310.75;2105923;27;45850;-51
2022/08/20 02:52:12;;;;;;;;;3.00;2.00;;;;;22.07;52.08;101307.19;2106877;27;47502;-49
2022/08/20 02:53:12;;;;;;;;;3.00;2.00;;;;;22.06;52.26;101311.72;2104990;28;47196;-52
2022/08/20 02:54:13;;;;;;;;;1.00;1.00;;;;;22.07;51.79;101304.47;2086742;28;47467;-52
2022/08/20 02:55:14;;;;;;;;;2.00;2.00;;;;;22.06;51.82;101308.16;2086971;28;47479;-52
2022/08/20 02:56:15;;;;;;;;;4.00;1.50;;;;;22.05;52.01;101312.66;2105877;27;47757;-51
2022/08/20 02:57:19;;;;;;;;;1.75;1.75;;;;;22.04;52.54;101306.38;2105577;27;47896;-51
2022/08/20 02:58:20;;;;;;;;;2.00;2.00;;;;;22.04;52.53;101314.47;2096192;28;47179;-50
2022/08/20 02:59:20;;;;;;;;;5.00;2.75;;;;;22.04;52.09;101316.31;2097069;28;45077;-52
2022/08/20 03:00:21;;;;;;;;;4.67;3.00;;;;;22.04;51.99;101310.91;2105060;28;47643;-54
2022/08/20 03:01:21;;;;;;;;;2.00;2.00;;;;;22.03;52.11;101320.00;2105829;27;47746;-51
2022/08/20 03:02:22;;;;;;;;;2.33;2.33;;;;;22.02;51.88;101308.31;2105810;27;47431;-52
2022/08/20 03:03:23;;;;;;;;;4.33;3.33;;;;;22.03;52.32;101320.84;2103776;28;47604;-55
2022/08/20 03:04:23;;;;;;;;;2.25;0.50;;;;;22.02;52.03;101316.41;2105498;27;47221;-53
2022/08/20 03:05:23;;;;;;;;;4.00;3.00;;;;;22.01;52.02;101311.97;2105685;27;47702;-54
2022/08/20 03:06:25;;;;;;;;;2.33;2.33;;;;;22.02;52.25;101315.53;2112818;27;48026;-51
2022/08/20 03:07:26;;;;;;;;;6.25;2.75;;;;;22.01;52.27;101313.81;2110352;27;46384;-49
2022/08/20 03:08:28;;;;;;;;;2.33;2.33;;;;;21.99;52.49;101311.19;2104831;28;47912;-53
2022/08/20 03:09:28;;;;;;;;;3.25;3.25;;;;;21.99;52.02;101311.19;2106001;27;46314;-54
2022/08/20 03:10:33;;;;;;;;;2.00;2.00;;;;;21.99;51.97;101310.34;2106441;27;47698;-54
2022/08/20 03:11:34;;;;;;;;;4.50;3.25;;;;;21.98;52.02;101317.56;2104859;28;47499;-54
2022/08/20 03:12:34;;;;;;;;;2.00;2.00;;;;;21.98;52.47;101312.16;2105924;27;47842;-53
2022/08/20 03:13:36;;;;;;;;;3.33;2.00;;;;;21.98;52.17;101314.88;2105595;27;47555;-52
2022/08/20 03:14:36;;;;;;;;;3.75;2.50;;;;;21.97;51.99;101313.09;2105000;28;47639;-53
2022/08/20 03:15:40;;;;;;;;;3.67;2.67;;;;;21.97;52.20;101313.09;2109561;27;47415;-52
2022/08/20 03:16:41;;;;;;;;;3.75;3.75;;;;;21.97;52.01;101310.41;2086257;28;47971;-51
2022/08/20 03:17:42;;;;;;;;;2.75;2.25;;;;;21.97;52.36;101309.53;2078619;28;47645;-50
2022/08/20 03:18:44;;;;;;;;;2.00;2.00;;;;;21.98;52.22;101308.59;2105544;27;47665;-53
2022/08/20 03:19:44;;;;;;;;;2.25;1.75;;;;;21.97;52.05;101318.50;2104759;28;47215;-51
2022/08/20 03:20:45;;;;;;;;;4.00;4.00;;;;;21.96;52.53;101311.34;2105867;27;46590;-50
2022/08/20 03:21:46;;;;;;;;;2.00;2.00;;;;;21.95;52.39;101308.75;2096513;28;47157;-53
2022/08/20 03:22:48;;;;;;;;;4.33;4.00;;;;;21.94;52.31;101310.59;2095947;28;47317;-52
2022/08/20 03:23:48;;;;;;;;;2.00;1.75;;;;;21.94;52.04;101313.28;2105828;27;48814;-53
2022/08/20 03:24:48;;;;;;;;;4.67;3.00;;;;;21.94;52.21;101310.59;2096648;28;47301;-53
2022/08/20 03:25:49;;;;;;;;;4.00;3.00;;;;;21.94;52.46;101312.41;2096114;28;46135;-53
2022/08/20 03:26:49;;;;;;;;;2.00;2.00;;;;;21.93;52.37;101305.28;2105349;27;47315;-52
2022/08/20 03:27:50;;;;;;;;;4.33;4.00;;;;;21.93;52.26;101310.69;2078196;28;47621;-51
2022/08/20 03:28:50;;;;;;;;;2.00;2.00;;;;;21.92;51.99;101312.50;2085693;28;46739;-54
2022/08/20 03:29:51;;;;;;;;;4.00;3.00;;;;;21.91;52.37;101302.66;2099240;27;47322;-50
2022/08/20 03:30:52;;;;;;;;;2.00;2.00;;;;;21.91;52.40;101299.97;2101713;28;47166;-52
2022/08/20 03:31:52;;;;;;;;;5.25;4.00;;;;;21.89;52.63;101304.59;2103019;27;47284;-53
2022/08/20 03:32:54;;;;;;;;;5.00;2.00;;;;;21.89;52.28;101307.31;2105343;27;47643;-52
2022/08/20 03:33:54;;;;;;;;;3.50;3.00;;;;;21.88;52.55;101310.09;2104384;27;47409;-52
2022/08/20 03:34:55;;;;;;;;;2.00;2.00;;;;;21.88;52.73;101307.41;2105613;27;47534;-52
2022/08/20 03:35:56;;;;;;;;;2.67;2.67;;;;;21.88;52.22;101302.84;2104493;28;47079;-56
2022/08/20 03:36:56;;;;;;;;;4.25;4.25;;;;;21.87;52.82;101311.94;2105458;27;46643;-54
2022/08/20 03:37:57;;;;;;;;;4.67;4.00;;;;;21.86;52.58;101310.19;2105375;27;47678;-51
2022/08/20 03:39:03;;;;;;;;;4.00;4.00;;;;;21.86;52.82;101315.59;2086658;28;45734;-53
2022/08/20 03:40:09;;;;;;;;;0.75;0.75;;;;;21.85;52.42;101310.25;2087593;28;47473;-51
2022/08/20 03:41:10;;;;;;;;;2.75;2.75;;;;;21.85;52.87;101311.16;2080689;28;47832;-54
2022/08/20 03:42:10;;;;;;;;;4.00;3.00;;;;;21.87;52.33;101319.16;2086411;28;47515;-49
2022/08/20 03:43:11;;;;;;;;;1.00;1.00;;;;;21.86;52.77;101318.28;2087012;28;47919;-55
2022/08/20 03:44:11;;;;;;;;;3.75;3.75;;;;;21.86;52.61;101312.03;2087729;28;46303;-51
2022/08/20 03:45:12;;;;;;;;;3.50;3.50;;;;;21.85;52.37;101302.16;2087100;28;47815;-50
2022/08/20 03:46:13;;;;;;;;;4.00;4.00;;;;;21.84;52.77;101313.91;2091132;28;47690;-52
2022/08/20 03:47:13;;;;;;;;;2.00;2.00;;;;;21.83;52.81;101310.34;2095273;28;47573;-53
2022/08/20 03:48:18;;;;;;;;;3.00;2.00;;;;;21.82;52.45;101303.22;2087462;28;47390;-50
2022/08/20 03:49:18;;;;;;;;;3.00;3.00;;;;;21.83;52.84;101310.34;2087697;28;48081;-52
2022/08/20 03:50:26;;;;;;;;;3.00;2.25;;;;;21.82;53.15;101308.59;2086708;28;47790;-51
2022/08/20 03:51:28;;;;;;;;;3.00;1.50;;;;;21.82;52.56;101307.75;2087921;28;47638;-49
2022/08/20 03:52:28;;;;;;;;;3.00;3.00;;;;;21.81;53.12;101312.28;2087466;28;47806;-54
2022/08/20 03:53:30;;;;;;;;;4.00;4.00;;;;;21.81;52.76;101316.81;2087130;28;47523;-51
2022/08/20 03:54:30;;;;;;;;;4.25;2.75;;;;;21.80;52.90;101328.59;2086124;28;47843;-52
2022/08/20 03:55:31;;;;;;;;;4.67;4.67;;;;;21.79;52.87;101322.31;2087195;28;47632;-54
2022/08/20 03:56:31;;;;;;;;;4.33;4.00;;;;;21.78;52.66;101314.31;2078121;28;47848;-53
2022/08/20 03:57:32;;;;;;;;;3.33;2.00;;;;;21.77;52.83;101309.84;2079906;28;48347;-48
2022/08/20 03:58:33;;;;;;;;;3.00;3.00;;;;;21.79;52.71;101321.44;2087029;28;47817;-49
2022/08/20 03:59:34;;;;;;;;;1.75;1.50;;;;;21.79;52.61;101324.13;2086652;28;47627;-51
2022/08/20 04:00:36;;;;;;;;;5.00;3.00;;;;;21.78;53.06;101327.81;2087917;28;47852;-53
2022/08/20 04:01:37;;;;;;;;;3.20;2.00;;;;;21.79;53.25;101324.13;2078380;28;47959;-53
2022/08/20 04:02:37;;;;;;;;;2.00;1.00;;;;;21.77;53.08;101316.13;2083158;28;47147;-54
2022/08/20 04:03:37;;;;;;;;;4.00;1.25;;;;;21.78;52.71;101325.09;2086613;28;47614;-52
2022/08/20 04:04:39;;;;;;;;;3.25;3.25;;;;;21.77;52.88;101318.84;2087832;28;47176;-54
2022/08/20 04:05:40;;;;;;;;;3.00;3.00;;;;;21.78;53.11;101327.81;2086261;28;47776;-52
2022/08/20 04:06:41;;;;;;;;;3.60;2.40;;;;;21.77;53.30;101324.25;2086926;28;47419;-50
2022/08/20 04:07:43;;;;;;;;;3.00;3.00;;;;;21.78;53.40;101319.69;2087544;28;48140;-54
2022/08/20 04:08:43;;;;;;;;;2.25;1.25;;;;;21.79;53.02;101322.31;2087943;28;47294;-51
2022/08/20 04:09:44;;;;;;;;;4.33;1.67;;;;;21.79;53.12;101329.53;2086842;28;47758;-54
2022/08/20 04:10:46;;;;;;;;;4.50;3.75;;;;;21.77;52.80;101326.94;2096712;28;47416;-55
2022/08/20 04:11:48;;;;;;;;;4.00;4.00;;;;;21.75;53.05;101331.56;2104879;27;46445;-52
2022/08/20 04:12:49;;;;;;;;;3.50;3.50;;;;;21.74;53.39;101330.69;2104987;27;47756;-51
2022/08/20 04:13:49;;;;;;;;;3.50;3.00;;;;;21.74;53.09;101329.81;2105634;27;46802;-50
2022/08/20 04:14:50;;;;;;;;;3.00;3.00;;;;;21.74;52.97;101325.28;2105945;27;47230;-51
2022/08/20 04:15:54;;;;;;;;;2.75;2.75;;;;;21.74;52.97;101325.28;2111696;27;48047;-52
2022/08/20 04:16:54;;;;;;;;;4.50;2.75;;;;;21.75;53.15;101326.16;2111231;27;47758;-55
2022/08/20 04:17:55;;;;;;;;;3.33;2.00;;;;;21.74;53.58;101324.41;2105942;27;47536;-50
2022/08/20 04:18:55;;;;;;;;;4.00;2.67;;;;;21.74;53.08;101321.72;2097993;28;46133;-49
2022/08/20 04:19:55;;;;;;;;;5.67;5.00;;;;;21.74;53.61;101321.72;2098065;28;46636;-53
2022/08/20 04:20:56;;;;;;;;;2.33;2.33;;;;;21.74;53.39;101321.72;2105761;28;47922;-51
2022/08/20 04:21:56;;;;;;;;;3.00;3.00;;;;;21.74;53.51;101319.03;2106984;27;47449;-50
2022/08/20 04:22:57;;;;;;;;;4.00;4.00;;;;;21.74;53.59;101322.59;2088038;28;47512;-52
2022/08/20 04:23:57;;;;;;;;;1.00;1.00;;;;;21.76;53.50;101318.94;2088885;28;47896;-53
2022/08/20 04:24:57;;;;;;;;;1.33;1.33;;;;;21.76;52.81;101319.78;2106601;27;47532;-54
2022/08/20 04:25:58;;;;;;;;;3.33;3.00;;;;;21.75;53.47;101318.06;2105657;28;47294;-54
2022/08/20 04:27:01;;;;;;;;;1.67;1.67;;;;;21.74;53.16;101314.47;2106369;27;47977;-54
2022/08/20 04:28:05;;;;;;;;;5.00;5.00;;;;;21.73;53.00;101317.28;2106628;27;46580;-52
2022/08/20 04:29:06;;;;;;;;;4.25;4.25;;;;;21.73;52.80;101320.84;2105719;28;47437;-51
2022/08/20 04:30:13;;;;;;;;;5.50;4.50;;;;;21.73;52.93;101325.38;2106682;27;47793;-54
2022/08/20 04:31:13;;;;;;;;;2.00;2.00;;;;;21.71;52.75;101320.03;2102050;27;47636;-52
2022/08/20 04:32:13;;;;;;;;;5.50;4.50;;;;;21.71;53.04;101327.28;2105477;27;47675;-54
2022/08/20 04:33:15;;;;;;;;;3.25;2.00;;;;;21.70;53.09;101329.09;2097750;28;47406;-53
2022/08/20 04:34:18;;;;;;;;;3.60;2.20;;;;;21.68;52.92;101325.63;2096579;28;47252;-56
2022/08/20 04:35:18;;;;;;;;;4.40;3.00;;;;;21.66;53.20;101326.69;2097817;28;47212;-50
2022/08/20 04:36:19;;;;;;;;;2.50;1.75;;;;;21.66;52.97;101329.38;2097495;28;48219;-53
2022/08/20 04:37:21;;;;;;;;;3.25;3.25;;;;;21.64;53.29;101324.09;2105172;28;47835;-52
2022/08/20 04:38:22;;;;;;;;;1.80;1.80;;;;;21.64;53.38;101334.88;2106652;27;46409;-54
2022/08/20 04:39:22;;;;;;;;;2.67;2.67;;;;;21.63;53.35;101335.84;2106657;27;47620;-51
2022/08/20 04:41:42;;;;;;;;;4.00;3.00;;;;;21.62;53.23;101325.13;2106438;27;48096;-52
2022/08/20 04:42:42;;;;;;;;;2.00;2.00;;;;;21.61;53.49;101331.50;2107616;27;47675;-53
2022/08/20 04:43:43;;;;;;;;;1.00;1.00;;;;;21.60;52.98;101327.94;2114206;27;47903;-54
2022/08/20 04:44:43;;;;;;;;;2.00;1.00;;;;;21.59;53.42;101326.16;2109774;27;47314;-54
2022/08/20 04:45:44;;;;;;;;;1.50;1.50;;;;;21.58;53.26;101323.56;2106118;27;47908;-53
2022/08/20 04:46:44;;;;;;;;;3.25;2.50;;;;;21.57;53.27;101327.22;2105970;27;47395;-54
2022/08/20 04:47:45;;;;;;;;;2.50;2.50;;;;;21.56;53.70;101329.03;2109474;27;47495;-51
2022/08/20 04:48:46;;;;;;;;;2.80;2.80;;;;;21.56;53.15;101337.16;2105113;28;48487;-51
2022/08/20 04:49:46;;;;;;;;;3.00;3.00;;;;;21.56;53.28;101326.34;2098642;28;47363;-50
2022/08/20 04:50:47;;;;;;;;;5.00;4.25;;;;;21.56;53.75;101325.47;2097543;28;47516;-54
2022/08/20 04:51:47;;;;;;;;;3.00;3.00;;;;;21.57;53.88;101327.22;2096616;28;47350;-53
2022/08/20 04:52:48;;;;;;;;;2.67;2.67;;;;;21.56;53.34;101330.88;2107908;27;48070;-51
2022/08/20 04:53:49;;;;;;;;;4.00;4.00;;;;;21.57;53.83;101332.63;2106281;27;47082;-52